createdAt,value
2023-02-19T00:00:58.497Z,-0.83
2023-02-19T00:01:58.364Z,-0.82
2023-02-19T00:02:58.369Z,-0.83
2023-02-19T00:03:59.586Z,-0.84
2023-02-19T00:04:58.510Z,-0.83
2023-02-19T00:06:00.997Z,-0.83
2023-02-19T00:06:58.437Z,-0.84
2023-02-19T00:07:58.443Z,-0.82
2023-02-19T00:08:59.063Z,-0.84
2023-02-19T00:09:58.536Z,-0.87
2023-02-19T00:11:02.353Z,-0.85
2023-02-19T00:11:58.546Z,-0.83
2023-02-19T00:12:58.548Z,-0.83
2023-02-19T00:13:59.867Z,-0.83
2023-02-19T00:14:58.646Z,-0.83
2023-02-19T00:15:58.642Z,-0.83
2023-02-19T00:16:58.651Z,-0.84
2023-02-19T00:17:58.664Z,-0.84
2023-02-19T00:18:59.867Z,-0.81
2023-02-19T00:19:58.720Z,-0.82
2023-02-19T00:20:58.730Z,-0.85
2023-02-19T00:21:58.714Z,-0.85
2023-02-19T00:22:58.735Z,-0.86
2023-02-19T00:24:00.343Z,-0.86
2023-02-19T00:24:58.780Z,-0.87
2023-02-19T00:26:17.694Z,-0.86
2023-02-19T00:26:59.893Z,-0.86
2023-02-19T00:27:59.919Z,-0.87
2023-02-19T00:29:00.860Z,-0.88
2023-02-19T00:30:00.012Z,-0.86
2023-02-19T00:32:02.100Z,-0.87
2023-02-19T00:33:01.901Z,-0.87
2023-02-19T00:35:42.190Z,-1.1
2023-02-19T00:38:54.607Z,-1.13
2023-02-19T00:40:44.800Z,-1.14
2023-02-19T00:41:44.834Z,-0.98
2023-02-19T00:42:44.891Z,-0.95
2023-02-19T00:43:45.844Z,-0.92
2023-02-19T00:45:09.623Z,-1.06
2023-02-19T00:46:09.657Z,-0.9
2023-02-19T00:47:09.607Z,-0.89
2023-02-19T00:48:09.713Z,-0.87
2023-02-19T00:49:13.515Z,-0.88
2023-02-19T00:50:10.196Z,-0.88
2023-02-19T00:51:10.647Z,-0.87
2023-02-19T00:52:10.183Z,-0.82
2023-02-19T00:53:10.292Z,-0.83
2023-02-19T00:54:10.868Z,-0.84
2023-02-19T00:55:10.323Z,-0.84
2023-02-19T00:56:10.786Z,-0.85
2023-02-19T00:57:10.257Z,-0.84
2023-02-19T00:58:10.309Z,-0.87
2023-02-19T00:59:10.902Z,-0.88
2023-02-19T01:00:11.018Z,-0.85
2023-02-19T01:01:11.209Z,-0.85
2023-02-19T01:02:10.393Z,-0.88
2023-02-19T01:03:10.395Z,-0.87
2023-02-19T01:04:10.426Z,-0.86
2023-02-19T01:05:10.422Z,-0.88
2023-02-19T01:06:11.006Z,-0.88
2023-02-19T01:07:10.437Z,-0.87
2023-02-19T01:08:10.471Z,-0.87
2023-02-19T01:09:10.465Z,-0.87
2023-02-19T01:10:10.515Z,-0.85
2023-02-19T01:11:10.966Z,-0.84
2023-02-19T01:12:10.568Z,-0.83
2023-02-19T01:13:10.893Z,-0.87
2023-02-19T01:14:10.949Z,-0.88
2023-02-19T01:15:10.497Z,-0.86
2023-02-19T01:16:14.969Z,-0.88
2023-02-19T01:17:11.726Z,-0.87
2023-02-19T01:18:11.798Z,-0.88
2023-02-19T01:19:11.641Z,-0.86
2023-02-19T01:20:11.729Z,-0.86
2023-02-19T01:21:18.880Z,-0.89
2023-02-19T01:22:15.521Z,-0.89
2023-02-19T01:23:15.540Z,-0.88
2023-02-19T01:24:15.525Z,-0.88
2023-02-19T01:25:15.560Z,-0.87
2023-02-19T01:26:19.666Z,-0.89
2023-02-19T01:27:16.317Z,-0.88
2023-02-19T01:28:16.293Z,-0.88
2023-02-19T01:29:16.291Z,-0.88
2023-02-19T01:30:16.439Z,-0.88
2023-02-19T01:31:18.635Z,-0.88
2023-02-19T01:32:16.476Z,-0.9
2023-02-19T01:33:16.396Z,-0.88
2023-02-19T01:34:16.453Z,-0.88
2023-02-19T01:35:16.481Z,-0.88
2023-02-19T01:36:16.606Z,-0.9
2023-02-19T01:37:16.516Z,-0.91
2023-02-19T01:38:16.475Z,-0.92
2023-02-19T01:39:16.527Z,-0.92
2023-02-19T01:40:16.752Z,-0.93
2023-02-19T01:41:17.740Z,-0.92
2023-02-19T01:42:17.313Z,-0.94
2023-02-19T01:43:16.536Z,-0.93
2023-02-19T01:46:24.671Z,-0.92
2023-02-19T01:47:22.227Z,-0.94
2023-02-19T01:48:27.427Z,-0.96
2023-02-19T01:50:29.480Z,-0.98
2023-02-19T01:51:27.814Z,-0.96
2023-02-19T01:52:31.184Z,-0.96
2023-02-19T01:53:30.421Z,-0.98
2023-02-19T01:54:29.919Z,-0.97
2023-02-19T01:55:27.674Z,-0.98
2023-02-19T01:56:28.747Z,-0.97
2023-02-19T01:57:30.863Z,-0.98
2023-02-19T01:58:29.185Z,-0.99
2023-02-19T01:59:27.912Z,-0.98
2023-02-19T02:00:28.064Z,-0.97
2023-02-19T02:01:27.873Z,-0.98
2023-02-19T02:02:27.935Z,-0.98
2023-02-19T02:03:28.293Z,-0.98
2023-02-19T02:04:30.315Z,-1
2023-02-19T02:05:36.394Z,-0.99
2023-02-19T02:06:39.245Z,-0.98
2023-02-19T02:07:35.457Z,-0.99
2023-02-19T02:08:35.687Z,-1
2023-02-19T02:09:32.577Z,-1.12
2023-02-19T02:12:59.364Z,-1.24
2023-02-19T02:13:59.538Z,-1.08
2023-02-19T02:14:59.703Z,-1.05
2023-02-19T02:16:04.029Z,-1.02
2023-02-19T02:22:20.669Z,-1.02
2023-02-19T02:32:43.075Z,-1.07
2023-02-19T02:34:48.802Z,-1.08
2023-02-19T02:36:44.231Z,-1.07
2023-02-19T02:37:43.667Z,-1.08
2023-02-19T02:38:43.845Z,-1.08
2023-02-19T02:39:44.868Z,-1.1
2023-02-19T02:40:43.850Z,-1.09
2023-02-19T02:41:43.874Z,-1.11
2023-02-19T02:44:18.820Z,-1.33
2023-02-19T02:45:23.903Z,-1.16
2023-02-19T02:46:26.459Z,-1.15
2023-02-19T02:47:23.264Z,-1.15
2023-02-19T02:49:27.669Z,-1.16
2023-02-19T02:50:32.120Z,-1.15
2023-02-19T02:51:41.190Z,-1.15
2023-02-19T02:52:36.021Z,-1.15
2023-02-19T02:53:45.986Z,-1.16
2023-02-19T02:54:37.828Z,-1.16
2023-02-19T02:55:40.374Z,-1.14
2023-02-19T02:56:38.860Z,-1.15
2023-02-19T02:57:38.106Z,-1.15
2023-02-19T02:58:38.177Z,-1.15
2023-02-19T02:59:39.206Z,-1.17
2023-02-19T03:00:37.966Z,-1.16
2023-02-19T03:01:49.542Z,-1.15
2023-02-19T03:02:42.840Z,-1.16
2023-02-19T03:03:43.152Z,-1.17
2023-02-19T03:04:47.048Z,-1.16
2023-02-19T03:05:44.661Z,-1.17
2023-02-19T03:06:44.664Z,-1.16
2023-02-19T03:09:49.736Z,-1.17
2023-02-19T03:10:51.292Z,-1.19
2023-02-19T03:11:50.152Z,-1.18
2023-02-19T03:12:50.644Z,-1.2
2023-02-19T03:13:50.359Z,-1.19
2023-02-19T03:14:53.341Z,-1.19
2023-02-19T03:15:52.769Z,-1.21
2023-02-19T03:16:51.375Z,-1.21
2023-02-19T03:17:52.105Z,-1.21
2023-02-19T03:18:53.513Z,-1.21
2023-02-19T03:19:52.038Z,-1.21
2023-02-19T03:20:54.715Z,-1.21
2023-02-19T03:21:54.369Z,-1.19
2023-02-19T03:22:52.023Z,-1.21
2023-02-19T03:23:51.302Z,-1.23
2023-02-19T03:24:54.544Z,-1.24
2023-02-19T03:25:50.997Z,-1.23
2023-02-19T03:26:51.198Z,-1.24
2023-02-19T03:27:52.062Z,-1.26
2023-02-19T03:28:52.698Z,-1.26
2023-02-19T03:29:52.499Z,-1.24
2023-02-19T03:30:52.924Z,-1.25
2023-02-19T03:32:55.715Z,-1.27
2023-02-19T03:33:56.400Z,-1.28
2023-02-19T03:35:01.856Z,-1.29
2023-02-19T03:36:02.624Z,-1.26
2023-02-19T03:37:03.100Z,-1.29
2023-02-19T03:39:05.863Z,-1.29
2023-02-19T03:40:04.342Z,-1.3
2023-02-19T03:41:10.275Z,-1.3
2023-02-19T03:42:15.936Z,-1.3
2023-02-19T03:43:19.825Z,-1.31
2023-02-19T03:45:23.529Z,-1.32
2023-02-19T03:46:17.818Z,-1.3
2023-02-19T03:47:26.940Z,-1.32
2023-02-19T03:48:31.551Z,-1.31
2023-02-19T03:53:35.454Z,-1.31
2023-02-19T03:54:35.363Z,-1.3
2023-02-19T03:56:38.177Z,-1.33
2023-02-19T03:58:48.117Z,-1.33
2023-02-19T04:00:45.024Z,-1.33
2023-02-19T04:01:44.238Z,-1.34
2023-02-19T04:02:44.331Z,-1.35
2023-02-19T04:04:49.610Z,-1.34
2023-02-19T04:05:51.951Z,-1.33
2023-02-19T04:06:52.394Z,-1.33
2023-02-19T04:07:53.188Z,-1.33
2023-02-19T04:08:52.204Z,-1.33
2023-02-19T04:09:51.313Z,-1.32
2023-02-19T04:10:50.263Z,-1.33
2023-02-19T04:11:51.052Z,-1.34
2023-02-19T04:12:52.843Z,-1.34
2023-02-19T04:13:58.229Z,-1.33
2023-02-19T04:14:59.893Z,-1.33
2023-02-19T04:15:58.162Z,-1.32
2023-02-19T04:16:59.061Z,-1.35
2023-02-19T04:17:58.900Z,-1.33
2023-02-19T04:19:02.055Z,-1.33
2023-02-19T04:19:59.809Z,-1.33
2023-02-19T04:21:00.213Z,-1.32
2023-02-19T04:21:59.202Z,-1.34
2023-02-19T04:22:58.495Z,-1.34
2023-02-19T04:24:02.864Z,-1.34
2023-02-19T04:24:59.068Z,-1.33
2023-02-19T04:26:00.217Z,-1.35
2023-02-19T04:26:59.380Z,-1.36
2023-02-19T04:27:59.226Z,-1.37
2023-02-19T04:28:59.153Z,-1.39
2023-02-19T04:29:59.364Z,-1.39
2023-02-19T04:30:59.277Z,-1.39
2023-02-19T04:31:59.264Z,-1.37
2023-02-19T04:32:59.214Z,-1.39
2023-02-19T04:33:59.219Z,-1.39
2023-02-19T04:34:59.296Z,-1.4
2023-02-19T04:35:59.249Z,-1.4
2023-02-19T04:36:59.260Z,-1.41
2023-02-19T04:37:59.303Z,-1.39
2023-02-19T04:38:59.739Z,-1.39
2023-02-19T04:39:59.326Z,-1.4
2023-02-19T04:40:59.333Z,-1.4
2023-02-19T04:41:59.354Z,-1.39
2023-02-19T04:42:59.367Z,-1.39
2023-02-19T04:43:59.401Z,-1.41
2023-02-19T04:44:59.397Z,-1.4
2023-02-19T04:46:00.110Z,-1.38
2023-02-19T04:46:59.966Z,-1.41
2023-02-19T04:47:59.450Z,-1.39
2023-02-19T04:48:59.471Z,-1.4
2023-02-19T04:49:59.496Z,-1.39
2023-02-19T04:50:59.480Z,-1.4
2023-02-19T04:51:59.492Z,-1.4
2023-02-19T04:52:59.521Z,-1.4
2023-02-19T04:53:59.514Z,-1.41
2023-02-19T04:54:59.618Z,-1.41
2023-02-19T04:56:05.397Z,-1.41
2023-02-19T04:57:01.638Z,-1.42
2023-02-19T04:58:01.664Z,-1.42
2023-02-19T04:59:01.638Z,-1.42
2023-02-19T05:00:01.890Z,-1.42
2023-02-19T05:01:01.663Z,-1.41
2023-02-19T05:02:01.683Z,-1.43
2023-02-19T05:03:01.935Z,-1.46
2023-02-19T05:04:01.884Z,-1.44
2023-02-19T05:05:01.966Z,-1.42
2023-02-19T05:06:02.582Z,-1.44
2023-02-19T05:07:01.997Z,-1.45
2023-02-19T05:08:01.757Z,-1.44
2023-02-19T05:09:01.789Z,-1.45
2023-02-19T05:10:01.840Z,-1.43
2023-02-19T05:11:02.623Z,-1.46
2023-02-19T05:12:02.096Z,-1.46
2023-02-19T05:13:01.857Z,-1.47
2023-02-19T05:14:01.854Z,-1.47
2023-02-19T05:15:01.902Z,-1.49
2023-02-19T05:16:03.626Z,-1.47
2023-02-19T05:17:01.919Z,-1.48
2023-02-19T05:18:02.022Z,-1.5
2023-02-19T05:19:02.047Z,-1.52
2023-02-19T05:20:02.098Z,-1.52
2023-02-19T05:21:02.287Z,-1.53
2023-02-19T05:22:01.989Z,-1.52
2023-02-19T05:23:02.031Z,-1.54
2023-02-19T05:24:02.015Z,-1.53
2023-02-19T05:25:02.035Z,-1.56
2023-02-19T05:26:08.694Z,-1.57
2023-02-19T05:27:05.084Z,-1.59
2023-02-19T05:28:04.926Z,-1.6
2023-02-19T05:29:04.972Z,-1.59
2023-02-19T05:30:05.374Z,-1.6
2023-02-19T05:31:07.021Z,-1.59
2023-02-19T05:32:05.726Z,-1.6
2023-02-19T05:33:05.011Z,-1.59
2023-02-19T05:34:05.021Z,-1.61
2023-02-19T05:35:05.259Z,-1.62
2023-02-19T05:36:06.662Z,-1.63
2023-02-19T05:37:05.115Z,-1.64
2023-02-19T05:38:05.101Z,-1.65
2023-02-19T05:39:05.086Z,-1.65
2023-02-19T05:40:05.495Z,-1.67
2023-02-19T05:41:13.025Z,-1.68
2023-02-19T05:42:09.328Z,-1.69
2023-02-19T05:43:09.557Z,-1.7
2023-02-19T05:44:10.510Z,-1.7
2023-02-19T05:45:09.382Z,-1.69
2023-02-19T05:46:10.161Z,-1.68
2023-02-19T05:47:09.815Z,-1.68
2023-02-19T05:48:10.634Z,-1.68
2023-02-19T05:49:09.430Z,-1.69
2023-02-19T05:50:09.477Z,-1.71
2023-02-19T05:51:11.330Z,-1.72
2023-02-19T05:52:09.471Z,-1.73
2023-02-19T05:53:09.532Z,-1.74
2023-02-19T05:54:09.539Z,-1.74
2023-02-19T05:55:10.376Z,-1.75
2023-02-19T05:57:14.014Z,-1.72
2023-02-19T05:58:14.300Z,-1.74
2023-02-19T05:59:15.714Z,-1.76
2023-02-19T06:00:16.170Z,-1.77
2023-02-19T06:01:17.830Z,-1.77
2023-02-19T06:02:14.058Z,-1.77
2023-02-19T06:03:14.080Z,-1.79
2023-02-19T06:04:14.333Z,-1.79
2023-02-19T06:05:14.154Z,-1.8
2023-02-19T06:06:15.191Z,-1.81
2023-02-19T06:07:14.163Z,-1.81
2023-02-19T06:08:14.564Z,-1.81
2023-02-19T06:09:14.250Z,-1.84
2023-02-19T06:10:14.251Z,-1.85
2023-02-19T06:11:14.240Z,-1.85
2023-02-19T06:12:14.215Z,-1.86
2023-02-19T06:13:15.814Z,-1.86
2023-02-19T06:14:14.310Z,-1.86
2023-02-19T06:15:14.381Z,-1.86
2023-02-19T06:16:14.323Z,-1.87
2023-02-19T06:17:14.465Z,-1.88
2023-02-19T06:18:14.359Z,-1.88
2023-02-19T06:19:14.356Z,-1.88
2023-02-19T06:20:14.883Z,-1.89
2023-02-19T06:21:15.670Z,-1.9
2023-02-19T06:22:15.097Z,-1.89
2023-02-19T06:23:14.410Z,-1.89
2023-02-19T06:24:14.694Z,-1.91
2023-02-19T06:25:14.543Z,-1.91
2023-02-19T06:26:15.727Z,-1.88
2023-02-19T06:27:14.598Z,-1.91
2023-02-19T06:28:14.481Z,-1.91
2023-02-19T06:29:14.523Z,-1.92
2023-02-19T06:30:14.578Z,-1.91
2023-02-19T06:31:15.170Z,-1.93
2023-02-19T06:32:14.711Z,-1.93
2023-02-19T06:33:14.574Z,-1.94
2023-02-19T06:34:14.583Z,-1.92
2023-02-19T06:35:14.602Z,-1.94
2023-02-19T06:36:16.554Z,-1.95
2023-02-19T06:37:14.702Z,-1.95
2023-02-19T06:38:14.656Z,-1.97
2023-02-19T06:39:14.673Z,-1.98
2023-02-19T06:40:15.081Z,-1.98
2023-02-19T06:41:14.966Z,-1.99
2023-02-19T06:42:14.779Z,-2.02
2023-02-19T06:43:14.727Z,-2.03
2023-02-19T06:44:14.757Z,-2.03
2023-02-19T06:45:14.765Z,-2.05
2023-02-19T06:46:14.810Z,-2.07
2023-02-19T06:47:14.845Z,-2.07
2023-02-19T06:48:14.825Z,-2.07
2023-02-19T06:49:15.051Z,-2.06
2023-02-19T06:50:15.065Z,-2.07
2023-02-19T06:51:16.343Z,-2.07
2023-02-19T06:52:15.074Z,-2.07
2023-02-19T06:53:14.891Z,-2.06
2023-02-19T06:54:14.934Z,-2.07
2023-02-19T06:55:15.071Z,-2.06
2023-02-19T06:56:23.074Z,-2.06
2023-02-19T06:57:19.800Z,-2.06
2023-02-19T06:58:19.959Z,-2.05
2023-02-19T06:59:19.810Z,-2.07
2023-02-19T07:00:19.996Z,-2.06
2023-02-19T07:01:20.105Z,-2.06
2023-02-19T07:02:19.922Z,-2.07
2023-02-19T07:03:20.370Z,-2.08
2023-02-19T07:04:20.020Z,-2.08
2023-02-19T07:05:19.879Z,-2.06
2023-02-19T07:06:20.768Z,-2.07
2023-02-19T07:07:19.981Z,-2.08
2023-02-19T07:08:20.105Z,-2.05
2023-02-19T07:09:19.958Z,-2.05
2023-02-19T07:10:19.980Z,-2.04
2023-02-19T07:11:20.015Z,-2.05
2023-02-19T07:12:20.074Z,-2.02
2023-02-19T07:13:20.033Z,-2.03
2023-02-19T07:14:20.263Z,-2.04
2023-02-19T07:15:20.047Z,-2.05
2023-02-19T07:16:20.145Z,-2.03
2023-02-19T07:17:20.147Z,-2.03
2023-02-19T07:18:20.105Z,-2.04
2023-02-19T07:19:20.167Z,-2.04
2023-02-19T07:20:20.177Z,-2.05
2023-02-19T07:21:20.158Z,-2.06
2023-02-19T07:22:20.254Z,-2.04
2023-02-19T07:23:20.445Z,-2.01
2023-02-19T07:24:20.249Z,-2.03
2023-02-19T07:25:20.203Z,-1.99
2023-02-19T07:26:20.788Z,-2.01
2023-02-19T07:27:20.257Z,-2
2023-02-19T07:28:20.267Z,-2.03
2023-02-19T07:29:20.275Z,-2.02
2023-02-19T07:30:20.360Z,-2.01
2023-02-19T07:31:21.208Z,-2
2023-02-19T07:32:20.343Z,-1.99
2023-02-19T07:33:20.429Z,-1.98
2023-02-19T07:34:20.367Z,-2
2023-02-19T07:35:20.383Z,-1.98
2023-02-19T07:36:21.938Z,-1.99
2023-02-19T07:37:20.442Z,-2
2023-02-19T07:38:21.680Z,-1.99
2023-02-19T07:39:20.447Z,-1.98
2023-02-19T07:40:20.713Z,-1.98
2023-02-19T07:41:20.741Z,-2
2023-02-19T07:42:21.026Z,-1.99
2023-02-19T07:43:21.730Z,-2.01
2023-02-19T07:44:21.027Z,-1.98
2023-02-19T07:45:21.053Z,-1.94
2023-02-19T07:46:21.595Z,-1.98
2023-02-19T07:47:21.098Z,-2
2023-02-19T07:48:21.140Z,-2.01
2023-02-19T07:49:21.146Z,-2
2023-02-19T07:50:21.131Z,-1.96
2023-02-19T07:51:21.748Z,-2.01
2023-02-19T07:52:21.168Z,-2.02
2023-02-19T07:53:21.755Z,-2.03
2023-02-19T07:54:21.222Z,-2.04
2023-02-19T07:55:21.207Z,-2.04
2023-02-19T07:56:21.230Z,-2.01
2023-02-19T07:57:21.259Z,-2.03
2023-02-19T07:58:21.378Z,-2.03
2023-02-19T07:59:21.353Z,-2.06
2023-02-19T08:00:21.318Z,-2.03
2023-02-19T08:01:22.637Z,-2.02
2023-02-19T08:02:21.311Z,-2.04
2023-02-19T08:03:21.484Z,-2.06
2023-02-19T08:04:21.380Z,-2.06
2023-02-19T08:05:21.379Z,-2.05
2023-02-19T08:06:21.381Z,-2.05
2023-02-19T08:07:21.420Z,-2.04
2023-02-19T08:08:21.470Z,-2.07
2023-02-19T08:09:21.486Z,-2.06
2023-02-19T08:10:21.539Z,-2.05
2023-02-19T08:11:21.510Z,-2.05
2023-02-19T08:12:21.497Z,-2.06
2023-02-19T08:13:21.682Z,-2.04
2023-02-19T08:14:28.168Z,-2.05
2023-02-19T08:15:24.488Z,-2.03
2023-02-19T08:16:40.871Z,-2.04
2023-02-19T08:17:29.129Z,-2.05
2023-02-19T08:18:30.400Z,-2.05
2023-02-19T08:19:29.111Z,-2.04
2023-02-19T08:20:29.161Z,-2.03
2023-02-19T08:21:29.205Z,-2.03
2023-02-19T08:22:29.192Z,-2.01
2023-02-19T08:23:29.228Z,-2.01
2023-02-19T08:24:29.255Z,-2.01
2023-02-19T08:25:29.321Z,-2.03
2023-02-19T08:26:29.199Z,-2.01
2023-02-19T08:27:29.191Z,-2.02
2023-02-19T08:28:29.633Z,-2.02
2023-02-19T08:29:29.277Z,-2.03
2023-02-19T08:30:30.278Z,-1.99
2023-02-19T08:31:29.371Z,-2.04
2023-02-19T08:32:29.336Z,-2.03
2023-02-19T08:33:29.872Z,-2.04
2023-02-19T08:34:29.385Z,-2.02
2023-02-19T08:35:29.414Z,-2.01
2023-02-19T08:36:29.355Z,-2.01
2023-02-19T08:37:29.392Z,-2.02
2023-02-19T08:38:29.379Z,-1.97
2023-02-19T08:39:29.430Z,-2
2023-02-19T08:40:29.591Z,-2
2023-02-19T08:41:29.483Z,-1.99
2023-02-19T08:42:29.441Z,-1.99
2023-02-19T08:43:29.579Z,-1.98
2023-02-19T08:44:29.468Z,-2.02
2023-02-19T08:45:29.712Z,-2
2023-02-19T08:46:29.604Z,-2.03
2023-02-19T08:47:29.523Z,-1.99
2023-02-19T08:48:29.506Z,-2.02
2023-02-19T08:49:29.589Z,-2.03
2023-02-19T08:50:29.622Z,-2.02
2023-02-19T08:51:29.594Z,-2.04
2023-02-19T08:52:29.580Z,-2.06
2023-02-19T08:53:30.728Z,-2.03
2023-02-19T08:54:30.241Z,-2.06
2023-02-19T08:55:29.760Z,-2.06
2023-02-19T08:56:29.674Z,-2.06
2023-02-19T08:57:29.723Z,-2.05
2023-02-19T08:58:29.802Z,-2.03
2023-02-19T08:59:29.708Z,-2.07
2023-02-19T09:00:29.783Z,-2.04
2023-02-19T09:01:29.900Z,-2.03
2023-02-19T09:02:29.734Z,-2.05
2023-02-19T09:03:29.912Z,-2.02
2023-02-19T09:04:30.040Z,-2.05
2023-02-19T09:05:29.823Z,-2.04
2023-02-19T09:06:30.903Z,-2.01
2023-02-19T09:07:29.860Z,-2.01
2023-02-19T09:08:29.821Z,-2.01
2023-02-19T09:09:29.918Z,-1.97
2023-02-19T09:10:29.967Z,-2.01
2023-02-19T09:11:29.895Z,-2.03
2023-02-19T09:12:29.970Z,-2.01
2023-02-19T09:13:30.148Z,-2.01
2023-02-19T09:14:31.628Z,-2.04
2023-02-19T09:15:29.999Z,-2.01
2023-02-19T09:16:29.924Z,-2.01
2023-02-19T09:17:29.991Z,-2.01
2023-02-19T09:18:30.201Z,-1.98
2023-02-19T09:19:30.219Z,-2
2023-02-19T09:20:29.977Z,-1.96
2023-02-19T09:21:30.011Z,-1.98
2023-02-19T09:22:30.105Z,-1.97
2023-02-19T09:23:30.457Z,-1.95
2023-02-19T09:24:30.182Z,-1.98
2023-02-19T09:25:30.082Z,-1.94
2023-02-19T09:26:30.103Z,-1.95
2023-02-19T09:27:30.272Z,-1.93
2023-02-19T09:28:30.081Z,-1.96
2023-02-19T09:29:30.105Z,-1.95
2023-02-19T09:30:30.173Z,-1.96
2023-02-19T09:31:30.280Z,-1.94
2023-02-19T09:32:30.909Z,-1.94
2023-02-19T09:33:30.190Z,-1.94
2023-02-19T09:34:30.303Z,-1.9
2023-02-19T09:35:30.193Z,-1.9
2023-02-19T09:36:30.146Z,-1.94
2023-02-19T09:37:31.262Z,-1.92
2023-02-19T09:38:30.567Z,-1.93
2023-02-19T09:39:30.224Z,-1.94
2023-02-19T09:40:30.497Z,-1.9
2023-02-19T09:41:35.108Z,-1.91
2023-02-19T09:42:32.695Z,-1.91
2023-02-19T09:43:32.203Z,-1.91
2023-02-19T09:44:36.286Z,-1.91
2023-02-19T09:45:34.584Z,-1.88
2023-02-19T09:46:41.984Z,-1.87
2023-02-19T09:47:34.143Z,-1.87
2023-02-19T09:48:33.658Z,-1.89
2023-02-19T09:49:35.715Z,-1.86
2023-02-19T09:50:36.452Z,-1.86
2023-02-19T09:51:36.443Z,-1.88
2023-02-19T09:53:43.677Z,-1.87
2023-02-19T09:54:40.997Z,-1.83
2023-02-19T09:55:41.200Z,-1.85
2023-02-19T09:56:40.462Z,-1.84
2023-02-19T09:57:40.594Z,-1.81
2023-02-19T10:00:42.718Z,-1.84
2023-02-19T10:01:43.901Z,-1.82
2023-02-19T10:02:42.738Z,-1.84
2023-02-19T10:06:00.789Z,-1.97
2023-02-19T10:06:59.730Z,-1.87
2023-02-19T10:08:00.289Z,-1.85
2023-02-19T10:10:02.670Z,-1.88
2023-02-19T10:11:02.507Z,-1.84
2023-02-19T10:12:00.544Z,-1.88
2023-02-19T10:14:07.006Z,-1.86
2023-02-19T10:16:11.279Z,-1.86
2023-02-19T10:17:11.854Z,-1.87
2023-02-19T10:18:11.098Z,-1.88
2023-02-19T10:19:12.580Z,-1.86
2023-02-19T10:22:18.100Z,-1.81
2023-02-19T10:23:15.775Z,-1.85
2023-02-19T10:24:22.533Z,-1.87
2023-02-19T10:25:24.287Z,-1.89
2023-02-19T10:26:21.874Z,-1.88
2023-02-19T10:27:25.857Z,-1.9
2023-02-19T10:28:29.659Z,-1.9
2023-02-19T10:29:26.379Z,-1.88
2023-02-19T10:30:31.176Z,-1.87
2023-02-19T10:31:28.182Z,-1.86
2023-02-19T10:32:28.321Z,-1.87
2023-02-19T10:33:28.552Z,-1.87
2023-02-19T10:34:28.028Z,-1.88
2023-02-19T10:35:28.547Z,-1.87
2023-02-19T10:37:29.565Z,-1.88
2023-02-19T10:40:33.112Z,-1.83
2023-02-19T10:41:33.021Z,-1.84
2023-02-19T10:42:32.914Z,-1.8
2023-02-19T10:43:35.054Z,-1.84
2023-02-19T10:44:38.444Z,-1.8
2023-02-19T10:46:41.665Z,-1.82
2023-02-19T10:47:38.133Z,-1.79
2023-02-19T10:48:40.629Z,-1.8
2023-02-19T10:49:39.920Z,-1.82
2023-02-19T10:50:37.991Z,-1.8
2023-02-19T10:51:39.124Z,-1.8
2023-02-19T10:52:38.468Z,-1.78
2023-02-19T10:54:39.755Z,-1.78
2023-02-19T10:55:39.781Z,-1.78
2023-02-19T10:56:39.782Z,-1.8
2023-02-19T10:57:39.915Z,-1.77
2023-02-19T10:58:39.969Z,-1.74
2023-02-19T10:59:48.565Z,-1.74
2023-02-19T11:00:44.743Z,-1.69
2023-02-19T11:02:49.767Z,-1.75
2023-02-19T11:03:50.518Z,-1.7
2023-02-19T11:05:52.932Z,-1.67
2023-02-19T11:06:50.341Z,-1.68
2023-02-19T11:07:53.887Z,-1.67
2023-02-19T11:08:52.339Z,-1.71
2023-02-19T11:09:50.445Z,-1.66
2023-02-19T11:10:50.380Z,-1.68
2023-02-19T11:11:53.903Z,-1.66
2023-02-19T11:12:52.304Z,-1.64
2023-02-19T11:13:50.591Z,-1.62
2023-02-19T11:14:50.759Z,-1.63
2023-02-19T11:15:52.292Z,-1.66
2023-02-19T11:16:52.502Z,-1.64
2023-02-19T11:18:57.393Z,-1.66
2023-02-19T11:19:58.256Z,-1.64
2023-02-19T11:21:56.435Z,-1.66
2023-02-19T11:22:58.776Z,-1.65
2023-02-19T11:23:55.838Z,-1.67
2023-02-19T11:24:59.359Z,-1.66
2023-02-19T11:25:57.679Z,-1.69
2023-02-19T11:26:56.352Z,-1.69
2023-02-19T11:29:00.490Z,-1.68
2023-02-19T11:35:17.197Z,-1.68
2023-02-19T11:36:21.172Z,-1.67
2023-02-19T11:37:16.383Z,-1.64
2023-02-19T11:38:14.121Z,-1.65
2023-02-19T11:39:23.974Z,-1.65
2023-02-19T11:40:15.771Z,-1.66
2023-02-19T11:41:25.663Z,-1.65
2023-02-19T11:51:57.272Z,-1.6
2023-02-19T11:53:00.133Z,-1.6
2023-02-19T11:53:58.859Z,-1.59
2023-02-19T11:59:04.793Z,-1.53
2023-02-19T12:20:18.838Z,-1.47
2023-02-19T12:32:44.385Z,-1.4
2023-02-19T12:43:13.572Z,-1.37
2023-02-19T12:44:16.962Z,-1.34
2023-02-19T12:45:19.149Z,-1.35
2023-02-19T12:46:20.005Z,-1.33
2023-02-19T12:47:19.932Z,-1.32
2023-02-19T12:48:20.329Z,-1.33
2023-02-19T12:49:26.824Z,-1.31
2023-02-19T12:50:23.560Z,-1.31
2023-02-19T12:51:27.519Z,-1.3
2023-02-19T12:52:28.774Z,-1.32
2023-02-19T12:55:37.990Z,-1.34
2023-02-19T12:56:36.218Z,-1.3
2023-02-19T12:57:36.724Z,-1.31
2023-02-19T12:59:39.584Z,-1.32
2023-02-19T13:00:41.131Z,-1.32
2023-02-19T13:03:49.706Z,-1.31
2023-02-19T13:04:52.896Z,-1.33
2023-02-19T13:05:52.434Z,-1.32
2023-02-19T13:09:06.871Z,-1.3
2023-02-19T13:09:56.539Z,-1.32
2023-02-19T13:10:56.690Z,-1.3
2023-02-19T13:11:56.555Z,-1.28
2023-02-19T13:12:55.024Z,-1.29
2023-02-19T13:13:56.659Z,-1.29
2023-02-19T13:14:58.620Z,-1.28
2023-02-19T13:16:00.120Z,-1.27
2023-02-19T13:18:03.138Z,-1.26
2023-02-19T13:19:02.966Z,-1.25
2023-02-19T13:20:03.293Z,-1.27
2023-02-19T13:21:02.396Z,-1.26
2023-02-19T13:24:09.025Z,-1.27
2023-02-19T13:25:06.874Z,-1.25
2023-02-19T13:36:36.034Z,-1.28
2023-02-19T13:37:35.615Z,-1.28
2023-02-19T13:38:39.355Z,-1.29
2023-02-19T13:39:35.549Z,-1.27
2023-02-19T13:40:37.399Z,-1.28
2023-02-19T13:42:39.434Z,-1.3
2023-02-19T13:43:40.048Z,-1.3
2023-02-19T13:44:40.793Z,-1.29
2023-02-19T13:45:41.007Z,-1.3
2023-02-19T13:46:41.759Z,-1.29
2023-02-19T13:48:41.658Z,-1.3
2023-02-19T13:49:41.357Z,-1.29
2023-02-19T13:50:40.944Z,-1.28
2023-02-19T13:52:43.118Z,-1.29
2023-02-19T13:54:44.239Z,-1.28
2023-02-19T13:56:49.386Z,-1.28
2023-02-19T13:57:49.241Z,-1.3
2023-02-19T13:58:52.997Z,-1.29
2023-02-19T14:00:51.290Z,-1.28
2023-02-19T14:04:58.218Z,-1.31
2023-02-19T14:05:59.703Z,-1.3
2023-02-19T14:07:56.707Z,-1.29
2023-02-19T14:08:57.766Z,-1.28
2023-02-19T14:09:56.780Z,-1.3
2023-02-19T14:10:57.343Z,-1.28
2023-02-19T14:12:04.462Z,-1.27
2023-02-19T14:13:01.098Z,-1.26
2023-02-19T14:14:01.108Z,-1.26
2023-02-19T14:16:04.778Z,-1.26
2023-02-19T14:23:23.864Z,-1.28
2023-02-19T14:24:23.419Z,-1.27
2023-02-19T14:25:36.041Z,-1.41
2023-02-19T15:46:54.179Z,-1.56
2023-02-19T16:28:23.577Z,-1.86
2023-02-19T16:29:23.667Z,-1.86
2023-02-19T16:31:21.366Z,-1.88
2023-02-19T16:32:19.618Z,-1.9
2023-02-19T16:36:23.203Z,-1.94
2023-02-19T16:38:24.818Z,-1.97
2023-02-19T16:39:24.791Z,-1.99
2023-02-19T16:41:25.841Z,-1.97
2023-02-19T16:42:25.802Z,-1.97
2023-02-19T16:44:30.358Z,-1.95
2023-02-19T16:45:27.585Z,-1.96
2023-02-19T16:46:26.926Z,-1.97
2023-02-19T16:47:31.375Z,-1.97
2023-02-19T16:48:27.813Z,-2.01
2023-02-19T16:49:27.582Z,-2.02
2023-02-19T16:50:27.640Z,-2.08
2023-02-19T16:51:27.717Z,-2.12
2023-02-19T16:52:28.180Z,-2.11
2023-02-19T16:53:27.659Z,-2.12
2023-02-19T16:54:27.639Z,-2.13
2023-02-19T16:55:28.208Z,-2.13
2023-02-19T16:56:27.731Z,-2.13
2023-02-19T16:57:27.705Z,-2.14
2023-02-19T16:58:27.728Z,-2.16
2023-02-19T16:59:27.728Z,-2.17
2023-02-19T17:00:29.153Z,-2.17
2023-02-19T17:01:28.212Z,-2.17
2023-02-19T17:02:27.914Z,-2.16
2023-02-19T17:03:27.972Z,-2.18
2023-02-19T17:04:27.807Z,-2.18
2023-02-19T17:05:29.148Z,-2.19
2023-02-19T17:06:28.116Z,-2.16
2023-02-19T17:07:27.918Z,-2.19
2023-02-19T17:09:29.173Z,-2.19
2023-02-19T17:10:29.202Z,-2.2
2023-02-19T17:11:29.286Z,-2.18
2023-02-19T17:12:29.209Z,-2.21
2023-02-19T17:13:29.662Z,-2.22
2023-02-19T17:14:29.238Z,-2.21
2023-02-19T17:15:29.231Z,-2.21
2023-02-19T17:16:30.339Z,-2.22
2023-02-19T17:17:29.270Z,-2.22
2023-02-19T17:18:29.299Z,-2.22
2023-02-19T17:19:29.317Z,-2.21
2023-02-19T17:20:30.146Z,-2.23
2023-02-19T17:21:30.647Z,-2.23
2023-02-19T17:22:29.353Z,-2.23
2023-02-19T17:23:29.401Z,-2.24
2023-02-19T17:24:29.410Z,-2.24
2023-02-19T17:25:29.469Z,-2.26
2023-02-19T17:26:30.402Z,-2.25
2023-02-19T17:27:29.484Z,-2.26
2023-02-19T17:28:29.482Z,-2.23
2023-02-19T17:29:29.486Z,-2.24
2023-02-19T17:30:31.053Z,-2.24
2023-02-19T17:31:29.786Z,-2.25
2023-02-19T17:32:29.696Z,-2.25
2023-02-19T17:33:29.561Z,-2.24
2023-02-19T17:34:29.597Z,-2.25
2023-02-19T17:35:29.734Z,-2.26
2023-02-19T17:36:30.792Z,-2.26
2023-02-19T17:37:29.827Z,-2.26
2023-02-19T17:38:29.678Z,-2.22
2023-02-19T17:39:29.671Z,-2.21
2023-02-19T17:40:33.519Z,-2.25
2023-02-19T17:41:30.327Z,-2.25
2023-02-19T17:42:30.164Z,-2.26
2023-02-19T17:43:30.136Z,-2.26
2023-02-19T17:44:30.157Z,-2.27
2023-02-19T17:45:30.442Z,-2.27
2023-02-19T17:46:30.179Z,-2.29
2023-02-19T17:47:30.373Z,-2.28
2023-02-19T17:48:30.253Z,-2.28
2023-02-19T17:49:30.211Z,-2.29
2023-02-19T17:50:31.385Z,-2.29
2023-02-19T17:51:30.293Z,-2.29
2023-02-19T17:52:30.450Z,-2.31
2023-02-19T17:53:30.293Z,-2.31